sensor_id;sensor_type;location;lat;lon;timestamp;temperature;humidity
21123;DHT22;10719;48.130;11.630;2023-11-19T00:02:10;3.90;99.90
21123;DHT22;10719;48.130;11.630;2023-11-19T00:04:39;3.90;99.90
21123;DHT22;10719;48.130;11.630;2023-11-19T00:07:05;3.90;99.90
21123;DHT22;10719;48.130;11.630;2023-11-19T00:09:33;3.90;99.90
21123;DHT22;10719;48.130;11.630;2023-11-19T00:11:59;4.00;99.90
21123;DHT22;10719;48.130;11.630;2023-11-19T00:14:26;4.00;99.90
21123;DHT22;10719;48.130;11.630;2023-11-19T00:16:52;3.90;99.90
21123;DHT22;10719;48.130;11.630;2023-11-19T00:19:19;4.00;99.90
21123;DHT22;10719;48.130;11.630;2023-11-19T00:21:44;4.10;99.90
21123;DHT22;10719;48.130;11.630;2023-11-19T00:24:11;4.00;99.90
21123;DHT22;10719;48.130;11.630;2023-11-19T00:26:38;4.00;99.90
21123;DHT22;10719;48.130;11.630;2023-11-19T00:29:04;4.00;99.90
21123;DHT22;10719;48.130;11.630;2023-11-19T00:31:29;4.10;99.90
21123;DHT22;10719;48.130;11.630;2023-11-19T00:33:55;4.00;99.90
21123;DHT22;10719;48.130;11.630;2023-11-19T00:36:20;4.00;99.90
21123;DHT22;10719;48.130;11.630;2023-11-19T00:38:46;4.00;99.90
21123;DHT22;10719;48.130;11.630;2023-11-19T00:41:12;4.10;99.90
21123;DHT22;10719;48.130;11.630;2023-11-19T00:43:37;4.20;99.90
21123;DHT22;10719;48.130;11.630;2023-11-19T00:46:06;4.30;99.90
21123;DHT22;10719;48.130;11.630;2023-11-19T00:48:32;4.30;99.90
21123;DHT22;10719;48.130;11.630;2023-11-19T00:50:57;4.30;99.90
21123;DHT22;10719;48.130;11.630;2023-11-19T00:53:23;4.40;99.90
21123;DHT22;10719;48.130;11.630;2023-11-19T00:55:49;4.40;99.90
21123;DHT22;10719;48.130;11.630;2023-11-19T00:58:14;4.40;99.90
21123;DHT22;10719;48.130;11.630;2023-11-19T01:00:40;4.30;99.90
21123;DHT22;10719;48.130;11.630;2023-11-19T01:03:05;4.40;99.90
21123;DHT22;10719;48.130;11.630;2023-11-19T01:05:32;4.40;99.90
21123;DHT22;10719;48.130;11.630;2023-11-19T01:07:58;4.40;99.90
21123;DHT22;10719;48.130;11.630;2023-11-19T01:10:24;4.50;99.90
21123;DHT22;10719;48.130;11.630;2023-11-19T01:12:51;4.60;99.90
21123;DHT22;10719;48.130;11.630;2023-11-19T01:15:17;4.60;99.90
21123;DHT22;10719;48.130;11.630;2023-11-19T01:17:44;4.50;99.90
21123;DHT22;10719;48.130;11.630;2023-11-19T01:20:10;4.60;99.90
21123;DHT22;10719;48.130;11.630;2023-11-19T01:22:38;4.60;99.90
21123;DHT22;10719;48.130;11.630;2023-11-19T01:25:04;4.60;99.90
21123;DHT22;10719;48.130;11.630;2023-11-19T01:27:31;4.60;99.90
21123;DHT22;10719;48.130;11.630;2023-11-19T01:29:56;4.60;99.90
21123;DHT22;10719;48.130;11.630;2023-11-19T01:32:22;4.60;99.90
21123;DHT22;10719;48.130;11.630;2023-11-19T01:34:49;4.70;99.90
21123;DHT22;10719;48.130;11.630;2023-11-19T01:37:15;4.70;99.90
21123;DHT22;10719;48.130;11.630;2023-11-19T01:39:43;4.70;99.90
21123;DHT22;10719;48.130;11.630;2023-11-19T01:42:09;4.80;99.90
21123;DHT22;10719;48.130;11.630;2023-11-19T01:44:35;4.80;99.90
21123;DHT22;10719;48.130;11.630;2023-11-19T01:47:01;4.80;99.90
21123;DHT22;10719;48.130;11.630;2023-11-19T01:49:27;4.90;99.90
21123;DHT22;10719;48.130;11.630;2023-11-19T01:51:54;4.90;99.90
21123;DHT22;10719;48.130;11.630;2023-11-19T01:54:20;4.90;99.90
21123;DHT22;10719;48.130;11.630;2023-11-19T01:56:45;4.90;99.90
21123;DHT22;10719;48.130;11.630;2023-11-19T01:59:12;5.00;99.90
21123;DHT22;10719;48.130;11.630;2023-11-19T02:01:39;5.00;99.90
21123;DHT22;10719;48.130;11.630;2023-11-19T02:04:08;5.10;99.90
21123;DHT22;10719;48.130;11.630;2023-11-19T02:06:39;5.00;99.90
21123;DHT22;10719;48.130;11.630;2023-11-19T02:09:06;5.10;99.90
21123;DHT22;10719;48.130;11.630;2023-11-19T02:11:34;5.10;99.90
21123;DHT22;10719;48.130;11.630;2023-11-19T02:14:00;5.20;99.90
21123;DHT22;10719;48.130;11.630;2023-11-19T02:16:26;5.20;99.90
21123;DHT22;10719;48.130;11.630;2023-11-19T02:18:52;5.20;99.90
21123;DHT22;10719;48.130;11.630;2023-11-19T02:21:17;5.20;99.90
21123;DHT22;10719;48.130;11.630;2023-11-19T02:23:43;5.30;99.90
21123;DHT22;10719;48.130;11.630;2023-11-19T02:26:25;5.30;99.90
21123;DHT22;10719;48.130;11.630;2023-11-19T02:28:52;5.30;99.90
21123;DHT22;10719;48.130;11.630;2023-11-19T02:31:17;5.40;99.90
21123;DHT22;10719;48.130;11.630;2023-11-19T02:33:44;5.40;99.90
21123;DHT22;10719;48.130;11.630;2023-11-19T02:36:10;5.50;99.90
21123;DHT22;10719;48.130;11.630;2023-11-19T02:38:36;5.50;99.90
21123;DHT22;10719;48.130;11.630;2023-11-19T02:41:03;5.60;99.90
21123;DHT22;10719;48.130;11.630;2023-11-19T02:43:31;5.70;99.90
21123;DHT22;10719;48.130;11.630;2023-11-19T02:46:02;5.60;99.90
21123;DHT22;10719;48.130;11.630;2023-11-19T02:48:28;5.70;99.90
21123;DHT22;10719;48.130;11.630;2023-11-19T02:50:53;5.70;99.90
21123;DHT22;10719;48.130;11.630;2023-11-19T02:53:19;5.70;99.90
21123;DHT22;10719;48.130;11.630;2023-11-19T02:55:47;5.80;99.90
21123;DHT22;10719;48.130;11.630;2023-11-19T02:58:15;5.80;99.90
21123;DHT22;10719;48.130;11.630;2023-11-19T03:00:49;5.90;99.90
21123;DHT22;10719;48.130;11.630;2023-11-19T03:03:27;6.00;99.90
21123;DHT22;10719;48.130;11.630;2023-11-19T03:06:07;6.00;99.90
21123;DHT22;10719;48.130;11.630;2023-11-19T03:08:35;6.10;99.90
21123;DHT22;10719;48.130;11.630;2023-11-19T03:11:01;6.10;99.90
21123;DHT22;10719;48.130;11.630;2023-11-19T03:13:26;6.20;99.90
21123;DHT22;10719;48.130;11.630;2023-11-19T03:15:52;6.20;99.90
21123;DHT22;10719;48.130;11.630;2023-11-19T03:18:19;6.20;99.90
21123;DHT22;10719;48.130;11.630;2023-11-19T03:20:46;6.30;99.90
21123;DHT22;10719;48.130;11.630;2023-11-19T03:23:12;6.30;99.90
21123;DHT22;10719;48.130;11.630;2023-11-19T03:25:38;6.40;99.90
21123;DHT22;10719;48.130;11.630;2023-11-19T03:28:04;6.40;99.90
21123;DHT22;10719;48.130;11.630;2023-11-19T03:30:30;6.50;99.90
21123;DHT22;10719;48.130;11.630;2023-11-19T03:32:57;6.50;99.90
21123;DHT22;10719;48.130;11.630;2023-11-19T03:35:23;6.50;99.90
21123;DHT22;10719;48.130;11.630;2023-11-19T03:37:50;6.50;99.90
21123;DHT22;10719;48.130;11.630;2023-11-19T03:40:16;6.60;99.90
21123;DHT22;10719;48.130;11.630;2023-11-19T03:42:42;6.60;99.90
21123;DHT22;10719;48.130;11.630;2023-11-19T03:45:08;6.60;99.90
21123;DHT22;10719;48.130;11.630;2023-11-19T03:47:36;6.60;99.90
21123;DHT22;10719;48.130;11.630;2023-11-19T03:50:03;6.70;99.90
21123;DHT22;10719;48.130;11.630;2023-11-19T03:52:29;6.70;99.90
21123;DHT22;10719;48.130;11.630;2023-11-19T03:54:55;6.80;99.90
21123;DHT22;10719;48.130;11.630;2023-11-19T03:57:21;6.80;99.90
21123;DHT22;10719;48.130;11.630;2023-11-19T03:59:47;6.90;99.90
21123;DHT22;10719;48.130;11.630;2023-11-19T04:02:13;6.90;99.90
21123;DHT22;10719;48.130;11.630;2023-11-19T04:04:39;7.00;99.90
21123;DHT22;10719;48.130;11.630;2023-11-19T04:07:05;7.00;99.90
21123;DHT22;10719;48.130;11.630;2023-11-19T04:09:31;7.00;99.90
21123;DHT22;10719;48.130;11.630;2023-11-19T04:11:59;7.00;99.90
21123;DHT22;10719;48.130;11.630;2023-11-19T04:14:25;7.00;99.90
21123;DHT22;10719;48.130;11.630;2023-11-19T04:16:50;7.00;99.90
21123;DHT22;10719;48.130;11.630;2023-11-19T04:19:17;7.00;99.90
21123;DHT22;10719;48.130;11.630;2023-11-19T04:21:43;7.00;99.90
21123;DHT22;10719;48.130;11.630;2023-11-19T04:24:09;7.00;99.90
21123;DHT22;10719;48.130;11.630;2023-11-19T04:26:40;7.00;99.90
21123;DHT22;10719;48.130;11.630;2023-11-19T04:29:09;7.00;99.90
21123;DHT22;10719;48.130;11.630;2023-11-19T04:31:34;7.00;99.90
21123;DHT22;10719;48.130;11.630;2023-11-19T04:34:00;7.10;99.90
21123;DHT22;10719;48.130;11.630;2023-11-19T04:36:26;7.10;99.90
21123;DHT22;10719;48.130;11.630;2023-11-19T04:38:51;7.10;99.90
21123;DHT22;10719;48.130;11.630;2023-11-19T04:41:17;7.20;99.90
21123;DHT22;10719;48.130;11.630;2023-11-19T04:43:43;7.20;99.90
21123;DHT22;10719;48.130;11.630;2023-11-19T04:46:09;7.20;99.90
21123;DHT22;10719;48.130;11.630;2023-11-19T04:48:35;7.20;99.90
21123;DHT22;10719;48.130;11.630;2023-11-19T04:51:00;7.30;99.90
21123;DHT22;10719;48.130;11.630;2023-11-19T04:53:26;7.40;99.90
21123;DHT22;10719;48.130;11.630;2023-11-19T04:55:52;7.40;99.90
21123;DHT22;10719;48.130;11.630;2023-11-19T04:58:17;7.50;99.90
21123;DHT22;10719;48.130;11.630;2023-11-19T05:00:44;7.70;99.90
21123;DHT22;10719;48.130;11.630;2023-11-19T05:03:10;7.90;99.90
21123;DHT22;10719;48.130;11.630;2023-11-19T05:05:36;8.20;99.90
21123;DHT22;10719;48.130;11.630;2023-11-19T05:08:02;8.40;99.90
21123;DHT22;10719;48.130;11.630;2023-11-19T05:10:28;8.60;99.90
21123;DHT22;10719;48.130;11.630;2023-11-19T05:12:53;8.70;99.90
21123;DHT22;10719;48.130;11.630;2023-11-19T05:15:21;8.80;99.90
21123;DHT22;10719;48.130;11.630;2023-11-19T05:17:47;8.90;99.90
21123;DHT22;10719;48.130;11.630;2023-11-19T05:20:13;9.00;99.90
21123;DHT22;10719;48.130;11.630;2023-11-19T05:22:42;9.00;99.90
21123;DHT22;10719;48.130;11.630;2023-11-19T05:25:08;9.10;99.90
21123;DHT22;10719;48.130;11.630;2023-11-19T05:27:35;9.10;99.90
21123;DHT22;10719;48.130;11.630;2023-11-19T05:30:02;9.20;99.90
21123;DHT22;10719;48.130;11.630;2023-11-19T05:32:28;9.20;99.90
21123;DHT22;10719;48.130;11.630;2023-11-19T05:34:53;9.20;99.90
21123;DHT22;10719;48.130;11.630;2023-11-19T05:37:20;9.20;99.90
21123;DHT22;10719;48.130;11.630;2023-11-19T05:39:45;9.20;99.90
21123;DHT22;10719;48.130;11.630;2023-11-19T05:42:11;9.20;99.90
21123;DHT22;10719;48.130;11.630;2023-11-19T05:44:37;9.20;99.90
21123;DHT22;10719;48.130;11.630;2023-11-19T05:47:03;9.20;99.90
21123;DHT22;10719;48.130;11.630;2023-11-19T05:49:29;9.20;99.90
21123;DHT22;10719;48.130;11.630;2023-11-19T05:51:55;9.20;99.90
21123;DHT22;10719;48.130;11.630;2023-11-19T05:54:21;9.30;99.90
21123;DHT22;10719;48.130;11.630;2023-11-19T05:56:48;9.20;99.90
21123;DHT22;10719;48.130;11.630;2023-11-19T05:59:14;9.30;99.90
21123;DHT22;10719;48.130;11.630;2023-11-19T06:01:43;9.30;99.90
21123;DHT22;10719;48.130;11.630;2023-11-19T06:04:09;9.30;99.90
21123;DHT22;10719;48.130;11.630;2023-11-19T06:06:35;9.30;99.90
21123;DHT22;10719;48.130;11.630;2023-11-19T06:09:01;9.30;99.90
21123;DHT22;10719;48.130;11.630;2023-11-19T06:11:28;9.30;99.90
21123;DHT22;10719;48.130;11.630;2023-11-19T06:13:53;9.40;99.90
21123;DHT22;10719;48.130;11.630;2023-11-19T06:16:19;9.40;99.90
21123;DHT22;10719;48.130;11.630;2023-11-19T06:18:45;9.40;99.90
21123;DHT22;10719;48.130;11.630;2023-11-19T06:21:11;9.40;99.90
21123;DHT22;10719;48.130;11.630;2023-11-19T06:23:38;9.40;99.90
21123;DHT22;10719;48.130;11.630;2023-11-19T06:26:04;9.40;99.90
21123;DHT22;10719;48.130;11.630;2023-11-19T06:28:31;9.40;99.90
21123;DHT22;10719;48.130;11.630;2023-11-19T06:30:56;9.50;99.90
21123;DHT22;10719;48.130;11.630;2023-11-19T06:33:24;9.40;99.90
21123;DHT22;10719;48.130;11.630;2023-11-19T06:35:49;9.50;99.90
21123;DHT22;10719;48.130;11.630;2023-11-19T06:38:15;9.50;99.90
21123;DHT22;10719;48.130;11.630;2023-11-19T06:40:41;9.50;99.90
21123;DHT22;10719;48.130;11.630;2023-11-19T06:43:06;9.60;99.90
21123;DHT22;10719;48.130;11.630;2023-11-19T06:45:34;9.60;99.90
21123;DHT22;10719;48.130;11.630;2023-11-19T06:48:03;9.60;99.90
21123;DHT22;10719;48.130;11.630;2023-11-19T06:50:30;9.60;99.90
21123;DHT22;10719;48.130;11.630;2023-11-19T06:52:55;9.60;99.90
21123;DHT22;10719;48.130;11.630;2023-11-19T06:55:21;9.70;99.90
21123;DHT22;10719;48.130;11.630;2023-11-19T06:57:47;9.70;99.90
21123;DHT22;10719;48.130;11.630;2023-11-19T07:00:12;9.70;99.90
21123;DHT22;10719;48.130;11.630;2023-11-19T07:02:38;9.80;99.90
21123;DHT22;10719;48.130;11.630;2023-11-19T07:05:05;9.80;99.90
21123;DHT22;10719;48.130;11.630;2023-11-19T07:07:31;9.80;99.90
21123;DHT22;10719;48.130;11.630;2023-11-19T07:09:58;9.80;99.90
21123;DHT22;10719;48.130;11.630;2023-11-19T07:12:23;9.80;99.90
21123;DHT22;10719;48.130;11.630;2023-11-19T07:14:52;9.80;99.90
21123;DHT22;10719;48.130;11.630;2023-11-19T07:17:18;9.90;99.90
21123;DHT22;10719;48.130;11.630;2023-11-19T07:19:46;9.90;99.90
21123;DHT22;10719;48.130;11.630;2023-11-19T07:22:11;10.00;99.90
21123;DHT22;10719;48.130;11.630;2023-11-19T07:24:39;10.00;99.90
21123;DHT22;10719;48.130;11.630;2023-11-19T07:27:06;10.00;99.90
21123;DHT22;10719;48.130;11.630;2023-11-19T07:29:34;10.00;99.90
21123;DHT22;10719;48.130;11.630;2023-11-19T07:32:00;10.00;99.90
21123;DHT22;10719;48.130;11.630;2023-11-19T07:34:27;10.00;99.90
21123;DHT22;10719;48.130;11.630;2023-11-19T07:36:54;10.10;99.90
21123;DHT22;10719;48.130;11.630;2023-11-19T07:39:22;10.10;99.90
21123;DHT22;10719;48.130;11.630;2023-11-19T07:41:48;10.20;99.90
21123;DHT22;10719;48.130;11.630;2023-11-19T07:44:14;10.20;99.90
21123;DHT22;10719;48.130;11.630;2023-11-19T07:46:40;10.30;99.90
21123;DHT22;10719;48.130;11.630;2023-11-19T07:49:07;10.40;99.90
21123;DHT22;10719;48.130;11.630;2023-11-19T07:51:33;10.30;99.90
21123;DHT22;10719;48.130;11.630;2023-11-19T07:53:58;10.30;99.90
21123;DHT22;10719;48.130;11.630;2023-11-19T07:56:24;10.40;99.90
21123;DHT22;10719;48.130;11.630;2023-11-19T07:58:50;10.50;99.90
21123;DHT22;10719;48.130;11.630;2023-11-19T08:01:15;10.50;99.90
21123;DHT22;10719;48.130;11.630;2023-11-19T08:03:41;10.50;99.90
21123;DHT22;10719;48.130;11.630;2023-11-19T08:06:07;10.50;99.90
21123;DHT22;10719;48.130;11.630;2023-11-19T08:08:33;10.50;99.90
21123;DHT22;10719;48.130;11.630;2023-11-19T08:11:00;10.50;99.90
21123;DHT22;10719;48.130;11.630;2023-11-19T08:13:25;10.60;99.90
21123;DHT22;10719;48.130;11.630;2023-11-19T08:15:51;10.60;99.90
21123;DHT22;10719;48.130;11.630;2023-11-19T08:18:17;10.60;99.90
21123;DHT22;10719;48.130;11.630;2023-11-19T08:20:44;10.70;99.90
21123;DHT22;10719;48.130;11.630;2023-11-19T08:23:10;10.70;99.90
21123;DHT22;10719;48.130;11.630;2023-11-19T08:25:35;10.70;99.90
21123;DHT22;10719;48.130;11.630;2023-11-19T08:28:01;10.70;99.90
21123;DHT22;10719;48.130;11.630;2023-11-19T08:30:29;10.80;99.90
21123;DHT22;10719;48.130;11.630;2023-11-19T08:32:54;10.80;99.90
21123;DHT22;10719;48.130;11.630;2023-11-19T08:35:20;10.80;99.90
21123;DHT22;10719;48.130;11.630;2023-11-19T08:37:46;10.90;99.90
21123;DHT22;10719;48.130;11.630;2023-11-19T08:40:12;10.80;99.90
21123;DHT22;10719;48.130;11.630;2023-11-19T08:42:40;10.80;99.90
21123;DHT22;10719;48.130;11.630;2023-11-19T08:45:07;10.90;99.90
21123;DHT22;10719;48.130;11.630;2023-11-19T08:47:32;10.90;99.90
21123;DHT22;10719;48.130;11.630;2023-11-19T08:49:58;10.90;99.90
21123;DHT22;10719;48.130;11.630;2023-11-19T08:52:23;11.00;99.90
21123;DHT22;10719;48.130;11.630;2023-11-19T08:54:49;11.00;99.90
21123;DHT22;10719;48.130;11.630;2023-11-19T08:57:15;11.00;99.90
21123;DHT22;10719;48.130;11.630;2023-11-19T08:59:40;11.10;99.90
21123;DHT22;10719;48.130;11.630;2023-11-19T09:02:06;11.10;99.90
21123;DHT22;10719;48.130;11.630;2023-11-19T09:04:32;11.10;99.90
21123;DHT22;10719;48.130;11.630;2023-11-19T09:06:58;11.10;99.90
21123;DHT22;10719;48.130;11.630;2023-11-19T09:09:23;11.10;99.90
21123;DHT22;10719;48.130;11.630;2023-11-19T09:11:49;11.20;99.90
21123;DHT22;10719;48.130;11.630;2023-11-19T09:14:15;11.20;99.90
21123;DHT22;10719;48.130;11.630;2023-11-19T09:16:41;11.20;99.90
21123;DHT22;10719;48.130;11.630;2023-11-19T09:19:06;11.20;99.90
21123;DHT22;10719;48.130;11.630;2023-11-19T09:21:32;11.30;99.90
21123;DHT22;10719;48.130;11.630;2023-11-19T09:23:59;11.20;99.90
21123;DHT22;10719;48.130;11.630;2023-11-19T09:26:25;11.20;99.90
21123;DHT22;10719;48.130;11.630;2023-11-19T09:28:51;11.30;99.90
21123;DHT22;10719;48.130;11.630;2023-11-19T09:31:17;11.30;99.90
21123;DHT22;10719;48.130;11.630;2023-11-19T09:33:43;11.40;99.90
21123;DHT22;10719;48.130;11.630;2023-11-19T09:36:11;11.50;99.90
21123;DHT22;10719;48.130;11.630;2023-11-19T09:38:39;11.50;99.90
21123;DHT22;10719;48.130;11.630;2023-11-19T09:41:05;11.60;99.90
21123;DHT22;10719;48.130;11.630;2023-11-19T09:43:35;11.60;99.90
21123;DHT22;10719;48.130;11.630;2023-11-19T09:46:09;11.60;99.90
21123;DHT22;10719;48.130;11.630;2023-11-19T09:48:39;11.60;99.90
21123;DHT22;10719;48.130;11.630;2023-11-19T09:51:09;11.60;99.90
21123;DHT22;10719;48.130;11.630;2023-11-19T09:53:35;11.60;99.90
21123;DHT22;10719;48.130;11.630;2023-11-19T09:56:02;11.60;99.90
21123;DHT22;10719;48.130;11.630;2023-11-19T09:58:29;11.50;99.90
21123;DHT22;10719;48.130;11.630;2023-11-19T10:00:56;11.60;99.90
21123;DHT22;10719;48.130;11.630;2023-11-19T10:03:24;11.60;99.90
21123;DHT22;10719;48.130;11.630;2023-11-19T10:05:51;11.70;99.90
21123;DHT22;10719;48.130;11.630;2023-11-19T10:08:16;11.90;99.90
21123;DHT22;10719;48.130;11.630;2023-11-19T10:10:43;12.00;99.90
21123;DHT22;10719;48.130;11.630;2023-11-19T10:13:08;12.10;99.90
21123;DHT22;10719;48.130;11.630;2023-11-19T10:15:37;12.10;99.90
21123;DHT22;10719;48.130;11.630;2023-11-19T10:18:03;12.20;99.90
21123;DHT22;10719;48.130;11.630;2023-11-19T10:20:41;12.30;99.90
21123;DHT22;10719;48.130;11.630;2023-11-19T10:23:08;12.20;99.90
21123;DHT22;10719;48.130;11.630;2023-11-19T10:25:34;12.20;99.90
21123;DHT22;10719;48.130;11.630;2023-11-19T10:28:00;12.20;99.90
21123;DHT22;10719;48.130;11.630;2023-11-19T10:30:30;12.30;99.90
21123;DHT22;10719;48.130;11.630;2023-11-19T10:33:08;12.40;99.90
21123;DHT22;10719;48.130;11.630;2023-11-19T10:35:36;12.60;99.90
21123;DHT22;10719;48.130;11.630;2023-11-19T10:38:14;12.70;99.90
21123;DHT22;10719;48.130;11.630;2023-11-19T10:40:41;12.70;99.90
21123;DHT22;10719;48.130;11.630;2023-11-19T10:43:07;12.70;99.90
21123;DHT22;10719;48.130;11.630;2023-11-19T10:45:34;12.70;99.90
21123;DHT22;10719;48.130;11.630;2023-11-19T10:48:00;12.90;99.90
21123;DHT22;10719;48.130;11.630;2023-11-19T10:50:27;13.30;99.90
21123;DHT22;10719;48.130;11.630;2023-11-19T10:52:57;13.50;99.90
21123;DHT22;10719;48.130;11.630;2023-11-19T10:55:30;13.70;99.90
21123;DHT22;10719;48.130;11.630;2023-11-19T10:58:03;13.70;99.90
21123;DHT22;10719;48.130;11.630;2023-11-19T11:00:54;13.60;99.90
21123;DHT22;10719;48.130;11.630;2023-11-19T11:03:21;13.50;99.90
21123;DHT22;10719;48.130;11.630;2023-11-19T11:05:51;13.40;99.90
21123;DHT22;10719;48.130;11.630;2023-11-19T11:08:20;13.40;99.90
21123;DHT22;10719;48.130;11.630;2023-11-19T11:10:57;13.30;99.90
21123;DHT22;10719;48.130;11.630;2023-11-19T11:13:24;13.30;99.90
21123;DHT22;10719;48.130;11.630;2023-11-19T11:15:51;13.40;99.90
21123;DHT22;10719;48.130;11.630;2023-11-19T11:18:17;13.30;99.90
21123;DHT22;10719;48.130;11.630;2023-11-19T11:20:46;13.40;99.90
21123;DHT22;10719;48.130;11.630;2023-11-19T11:26:10;13.30;99.90
21123;DHT22;10719;48.130;11.630;2023-11-19T11:34:47;13.40;99.90
21123;DHT22;10719;48.130;11.630;2023-11-19T11:39:42;13.40;99.90
21123;DHT22;10719;48.130;11.630;2023-11-19T11:45:18;13.60;99.90
21123;DHT22;10719;48.130;11.630;2023-11-19T11:50:19;13.80;99.90
21123;DHT22;10719;48.130;11.630;2023-11-19T11:53:18;13.80;99.90
21123;DHT22;10719;48.130;11.630;2023-11-19T11:58:26;13.70;99.90
21123;DHT22;10719;48.130;11.630;2023-11-19T12:00:52;13.90;99.90
21123;DHT22;10719;48.130;11.630;2023-11-19T12:03:21;13.90;99.90
21123;DHT22;10719;48.130;11.630;2023-11-19T12:05:49;14.10;99.90
21123;DHT22;10719;48.130;11.630;2023-11-19T12:08:18;14.20;99.90
21123;DHT22;10719;48.130;11.630;2023-11-19T12:10:50;14.10;99.90
21123;DHT22;10719;48.130;11.630;2023-11-19T12:13:21;14.10;99.90
21123;DHT22;10719;48.130;11.630;2023-11-19T12:18:28;14.20;99.90
21123;DHT22;10719;48.130;11.630;2023-11-19T12:20:54;14.20;99.90
21123;DHT22;10719;48.130;11.630;2023-11-19T12:23:21;14.20;99.90
21123;DHT22;10719;48.130;11.630;2023-11-19T12:25:47;14.00;99.90
21123;DHT22;10719;48.130;11.630;2023-11-19T12:28:13;14.00;99.90
21123;DHT22;10719;48.130;11.630;2023-11-19T12:30:39;14.00;99.90
21123;DHT22;10719;48.130;11.630;2023-11-19T12:33:11;14.10;99.90
21123;DHT22;10719;48.130;11.630;2023-11-19T12:35:41;14.10;99.90
21123;DHT22;10719;48.130;11.630;2023-11-19T12:38:07;14.30;99.90
21123;DHT22;10719;48.130;11.630;2023-11-19T12:40:33;14.30;99.90
21123;DHT22;10719;48.130;11.630;2023-11-19T12:42:59;14.20;99.90
21123;DHT22;10719;48.130;11.630;2023-11-19T12:45:34;14.10;99.90
21123;DHT22;10719;48.130;11.630;2023-11-19T12:48:08;14.10;99.90
21123;DHT22;10719;48.130;11.630;2023-11-19T12:50:58;14.40;99.90
21123;DHT22;10719;48.130;11.630;2023-11-19T12:53:25;15.40;99.90
21123;DHT22;10719;48.130;11.630;2023-11-19T12:55:53;16.00;99.90
21123;DHT22;10719;48.130;11.630;2023-11-19T12:58:33;16.10;99.90
21123;DHT22;10719;48.130;11.630;2023-11-19T13:01:04;15.60;99.90
21123;DHT22;10719;48.130;11.630;2023-11-19T13:03:35;15.90;99.90
21123;DHT22;10719;48.130;11.630;2023-11-19T13:06:06;16.10;99.90
21123;DHT22;10719;48.130;11.630;2023-11-19T13:08:47;16.20;99.90
21123;DHT22;10719;48.130;11.630;2023-11-19T13:11:31;16.10;99.90
21123;DHT22;10719;48.130;11.630;2023-11-19T13:16:24;15.80;99.90
21123;DHT22;10719;48.130;11.630;2023-11-19T13:18:50;15.10;99.90
21123;DHT22;10719;48.130;11.630;2023-11-19T13:21:17;14.70;99.90
21123;DHT22;10719;48.130;11.630;2023-11-19T13:23:43;14.50;99.90
21123;DHT22;10719;48.130;11.630;2023-11-19T13:26:09;14.30;99.90
21123;DHT22;10719;48.130;11.630;2023-11-19T13:28:35;14.10;99.90
21123;DHT22;10719;48.130;11.630;2023-11-19T13:31:01;14.00;99.90
21123;DHT22;10719;48.130;11.630;2023-11-19T13:33:26;13.90;99.90
21123;DHT22;10719;48.130;11.630;2023-11-19T13:35:52;13.80;99.90
21123;DHT22;10719;48.130;11.630;2023-11-19T13:38:18;13.80;99.90
21123;DHT22;10719;48.130;11.630;2023-11-19T13:40:44;13.80;99.90
21123;DHT22;10719;48.130;11.630;2023-11-19T13:43:09;13.70;99.90
21123;DHT22;10719;48.130;11.630;2023-11-19T13:45:35;13.70;99.90
21123;DHT22;10719;48.130;11.630;2023-11-19T13:48:00;13.70;99.90
21123;DHT22;10719;48.130;11.630;2023-11-19T13:50:26;13.70;99.90
21123;DHT22;10719;48.130;11.630;2023-11-19T13:52:54;13.70;99.90
21123;DHT22;10719;48.130;11.630;2023-11-19T13:55:20;13.60;99.90
21123;DHT22;10719;48.130;11.630;2023-11-19T13:57:45;13.50;99.90
21123;DHT22;10719;48.130;11.630;2023-11-19T14:00:18;13.40;99.90
21123;DHT22;10719;48.130;11.630;2023-11-19T14:02:46;13.40;99.90
21123;DHT22;10719;48.130;11.630;2023-11-19T14:05:12;13.30;99.90
21123;DHT22;10719;48.130;11.630;2023-11-19T14:07:39;13.30;99.90
21123;DHT22;10719;48.130;11.630;2023-11-19T14:10:06;13.30;99.90
21123;DHT22;10719;48.130;11.630;2023-11-19T14:12:32;13.30;99.90
21123;DHT22;10719;48.130;11.630;2023-11-19T14:14:58;13.30;99.90
21123;DHT22;10719;48.130;11.630;2023-11-19T14:17:25;13.30;99.90
21123;DHT22;10719;48.130;11.630;2023-11-19T14:19:51;13.30;99.90
21123;DHT22;10719;48.130;11.630;2023-11-19T14:22:17;13.40;99.90
21123;DHT22;10719;48.130;11.630;2023-11-19T14:24:42;13.40;99.90
21123;DHT22;10719;48.130;11.630;2023-11-19T14:27:09;13.40;99.90
21123;DHT22;10719;48.130;11.630;2023-11-19T14:29:35;13.40;99.90
21123;DHT22;10719;48.130;11.630;2023-11-19T14:32:02;13.40;99.90
21123;DHT22;10719;48.130;11.630;2023-11-19T14:34:29;13.30;99.90
21123;DHT22;10719;48.130;11.630;2023-11-19T14:36:55;13.30;99.90
21123;DHT22;10719;48.130;11.630;2023-11-19T14:39:20;13.40;99.90
21123;DHT22;10719;48.130;11.630;2023-11-19T14:41:46;13.40;99.90
21123;DHT22;10719;48.130;11.630;2023-11-19T14:44:11;13.30;99.90
21123;DHT22;10719;48.130;11.630;2023-11-19T14:46:38;13.30;99.90
21123;DHT22;10719;48.130;11.630;2023-11-19T14:49:03;13.30;99.90
21123;DHT22;10719;48.130;11.630;2023-11-19T14:51:36;13.30;99.90
21123;DHT22;10719;48.130;11.630;2023-11-19T14:54:03;13.30;99.90
21123;DHT22;10719;48.130;11.630;2023-11-19T14:56:29;13.20;99.90
21123;DHT22;10719;48.130;11.630;2023-11-19T14:58:54;13.20;99.90
21123;DHT22;10719;48.130;11.630;2023-11-19T15:01:20;13.10;99.90
21123;DHT22;10719;48.130;11.630;2023-11-19T15:03:46;13.00;99.90
21123;DHT22;10719;48.130;11.630;2023-11-19T15:06:11;13.00;99.90
21123;DHT22;10719;48.130;11.630;2023-11-19T15:08:37;13.00;99.90
21123;DHT22;10719;48.130;11.630;2023-11-19T15:11:03;12.90;99.90
21123;DHT22;10719;48.130;11.630;2023-11-19T15:13:30;12.80;99.90
21123;DHT22;10719;48.130;11.630;2023-11-19T15:15:56;12.80;99.90
21123;DHT22;10719;48.130;11.630;2023-11-19T15:18:22;12.80;99.90
21123;DHT22;10719;48.130;11.630;2023-11-19T15:20:48;12.80;99.90
21123;DHT22;10719;48.130;11.630;2023-11-19T15:23:14;12.70;99.90
21123;DHT22;10719;48.130;11.630;2023-11-19T15:25:40;12.60;99.90
21123;DHT22;10719;48.130;11.630;2023-11-19T15:28:07;12.60;99.90
21123;DHT22;10719;48.130;11.630;2023-11-19T15:30:33;12.50;99.90
21123;DHT22;10719;48.130;11.630;2023-11-19T15:32:58;12.50;99.90
21123;DHT22;10719;48.130;11.630;2023-11-19T15:35:24;12.40;99.90
21123;DHT22;10719;48.130;11.630;2023-11-19T15:37:50;12.40;99.90
21123;DHT22;10719;48.130;11.630;2023-11-19T15:40:15;12.40;99.90
21123;DHT22;10719;48.130;11.630;2023-11-19T15:42:41;12.30;99.90
21123;DHT22;10719;48.130;11.630;2023-11-19T15:45:09;12.30;99.90
21123;DHT22;10719;48.130;11.630;2023-11-19T15:47:35;12.30;99.90